الصفحة الرئيسية
METAR-TAF:

METAR-TAF

مطار :

بورت مورسبي, بابوا نيو غينياالجديدة

دائرة عرض: 09-26S, خط طول: 147-13E, ارتفاع: 38 متر

مراقبة الطقس الحالي

تاريخ ووقت الإصدار 1ساعة و 18 دقيقة قبل الساعة 04:00UTC
ريح 10 عقدة من الجنوب الشرقي تتزايد حتى 15 عقدة
درجة الحرارة 32°درجة مئوية
الرطوبة 71%
ضغط 1008 hPa
الرؤية 10 كم أو أكثر
غيوم متفرقة على ارتفاع 3000 قدم

METAR: AYPY 250400Z 14010G15KT 9999 SCT030 32/26 Q1008

زمن: 15:18 (05:18 UTC)

توقعات

تاريخ ووقت الإصدار 7ساعات و 18 دقيقة قبل الساعة 22:00UTC
التوقعات صالحة من25 الساعة 00 UTC إلى 26 الساعة 00 UTC
ريح 10 عقدة من الجنوب/الجنوب الشرقي
الرؤية 10 كم أو أكثر
غيوم متفرقة على ارتفاع 1800 قدم
غيوم متفرقة على ارتفاع 14000 قدم
من 25 الساعة 0600 UTC
ريح 12 عقدة من الجنوب/الجنوب الشرقي
الرؤية 10 كم أو أكثر
غيوم متفرقة على ارتفاع 2000 قدم
غيوم مفككة على ارتفاع 14000 قدم

TAF: AYPY 242200Z 2500/2600 16010KT 9999 SCT018 SCT140 FM250600 16012KT 9999 SCT020 BKN140

أرصاد الطقس والتوقعات من أكثر من 4000 مطار (تقارير الطقس للمطار METAR والتنبؤ بالطقس بالمطارTAF).

المحطات المتاحة هي النقط الصفراء والحمراء على الخريطة.

حرك المؤشر فوق النقطة لمعرفة اسم المحطة.

ثم انقر لمعرفة أرصاد وتوقعات الطقس.

لتغيير الخارطة: اضغط على الأزرار الخضراء مع رمز الصليب الأسود للتكبير. على الزر الأخضر مع شرطة للتصغير، أو على الأسهم الخضراء للخرائط المجاورة.


METAR-TAF: